Time;durP1;ratioP1;P1;durP2;ratioP2;P2;SDS_P1;SDS_P2;PMS_P1;PMS_P2;Temp;Humidity;BMP_temperature;BMP_pressure;BME280_temperature;BME280_humidity;BME280_pressure;Samples;Min_cycle;Max_cycle;Signal;HPM_P1;HPM_P2
2023/06/10 00:02:08;;;;;;;10.15;5.93;;;15.80;99.90;;;;;;5052927;28;20044;-60
2023/06/10 00:04:36;;;;;;;12.05;6.72;;;15.80;99.90;;;;;;5059978;28;20040;-60
2023/06/10 00:07:03;;;;;;;9.68;5.97;;;15.80;99.90;;;;;;5054668;28;20047;-61
2023/06/10 00:09:29;;;;;;;10.60;6.10;;;15.80;99.90;;;;;;5053656;28;20055;-61
2023/06/10 00:11:56;;;;;;;9.82;5.60;;;15.80;99.90;;;;;;5054221;28;20032;-60
2023/06/10 00:14:21;;;;;;;9.90;6.03;;;15.80;99.90;;;;;;5050057;28;20050;-60
2023/06/10 00:16:47;;;;;;;10.38;6.45;;;15.80;99.90;;;;;;5063670;28;20102;-60
2023/06/10 00:19:16;;;;;;;13.05;6.63;;;15.80;99.90;;;;;;5054483;28;20040;-60
2023/06/10 00:21:44;;;;;;;10.52;5.70;;;15.80;99.90;;;;;;5054078;28;20127;-60
2023/06/10 00:24:11;;;;;;;10.63;6.32;;;15.80;99.90;;;;;;5053442;28;20063;-61
2023/06/10 00:26:39;;;;;;;10.57;5.95;;;15.80;99.90;;;;;;5054493;28;20109;-60
2023/06/10 00:29:05;;;;;;;13.38;6.18;;;15.80;99.90;;;;;;5070495;28;20037;-60
2023/06/10 00:31:31;;;;;;;10.68;5.55;;;15.80;99.90;;;;;;5033153;28;20041;-60
2023/06/10 00:33:56;;;;;;;10.98;6.90;;;15.80;99.90;;;;;;5033865;28;20386;-60
2023/06/10 00:36:22;;;;;;;11.80;6.38;;;15.80;99.90;;;;;;5034339;28;20037;-61
2023/06/10 00:38:47;;;;;;;11.63;6.28;;;15.80;99.90;;;;;;5033153;28;20489;-60
2023/06/10 00:41:14;;;;;;;9.00;5.63;;;15.70;99.90;;;;;;5051728;28;20375;-60
2023/06/10 00:43:39;;;;;;;11.23;5.53;;;15.70;99.90;;;;;;5017114;28;20045;-60
2023/06/10 00:46:05;;;;;;;11.90;6.25;;;15.70;99.90;;;;;;5033641;28;20052;-61
2023/06/10 00:48:32;;;;;;;10.82;5.47;;;15.70;99.90;;;;;;5051694;28;20040;-60
2023/06/10 00:50:59;;;;;;;11.05;6.20;;;15.70;99.90;;;;;;5034094;28;20171;-60
2023/06/10 00:53:25;;;;;;;10.13;6.10;;;15.60;99.90;;;;;;5033380;28;20045;-60
2023/06/10 00:55:51;;;;;;;13.05;6.38;;;15.60;99.90;;;;;;5051265;28;20047;-60
2023/06/10 00:58:17;;;;;;;11.90;5.85;;;15.60;99.90;;;;;;5051715;28;20037;-61
2023/06/10 01:00:44;;;;;;;11.63;6.38;;;15.60;99.90;;;;;;5033018;28;20510;-60
2023/06/10 01:03:11;;;;;;;13.00;6.30;;;15.60;99.90;;;;;;5033565;28;20119;-60
2023/06/10 01:05:38;;;;;;;17.20;7.45;;;15.60;99.90;;;;;;5051911;28;20045;-60
2023/06/10 01:08:53;;;;;;;10.45;6.47;;;15.50;99.90;;;;;;5051261;28;20036;-60
2023/06/10 01:11:23;;;;;;;9.73;5.75;;;15.50;99.90;;;;;;4999625;28;20056;-61
2023/06/10 01:13:51;;;;;;;11.20;6.25;;;15.50;99.90;;;;;;5016166;28;20049;-60
2023/06/10 01:16:19;;;;;;;12.68;6.18;;;15.50;99.90;;;;;;5033706;28;20044;-60
2023/06/10 01:18:44;;;;;;;10.20;6.00;;;15.50;99.90;;;;;;5051590;28;20186;-61
2023/06/10 01:21:33;;;;;;;9.52;5.75;;;15.50;99.90;;;;;;5016331;28;20585;-60
2023/06/10 01:23:59;;;;;;;9.23;5.55;;;15.50;99.90;;;;;;5033628;28;20504;-60
2023/06/10 01:26:34;;;;;;;12.65;6.07;;;15.40;99.90;;;;;;5052567;28;20058;-60
2023/06/10 01:29:17;;;;;;;9.25;5.65;;;15.40;99.90;;;;;;5032634;28;20497;-61
2023/06/10 01:31:49;;;;;;;16.30;7.15;;;15.40;99.90;;;;;;5033699;28;20033;-60
2023/06/10 01:34:17;;;;;;;10.13;6.10;;;15.40;99.90;;;;;;5050544;28;20045;-60
2023/06/10 01:36:47;;;;;;;11.95;6.45;;;15.40;99.90;;;;;;5033559;28;20044;-61
2023/06/10 01:39:15;;;;;;;11.48;6.13;;;15.30;99.90;;;;;;5051358;28;20401;-60
2023/06/10 01:41:40;;;;;;;9.63;6.07;;;15.30;99.90;;;;;;5050486;28;20124;-61
2023/06/10 01:44:06;;;;;;;12.95;6.47;;;15.30;99.90;;;;;;5034170;28;20120;-60
2023/06/10 01:46:32;;;;;;;12.30;6.72;;;15.20;99.90;;;;;;5033456;28;20033;-61
2023/06/10 01:48:57;;;;;;;13.50;6.95;;;15.20;99.90;;;;;;5050462;28;20114;-61
2023/06/10 01:51:23;;;;;;;12.32;6.55;;;15.20;99.90;;;;;;5051552;28;20084;-60
2023/06/10 01:53:49;;;;;;;10.35;6.18;;;15.10;99.90;;;;;;5051241;28;20041;-60
2023/06/10 01:56:17;;;;;;;11.45;6.38;;;15.10;99.90;;;;;;5050493;28;20044;-60
2023/06/10 01:58:43;;;;;;;16.98;7.43;;;15.00;99.90;;;;;;5033619;28;20390;-60
2023/06/10 02:01:10;;;;;;;12.60;6.40;;;15.00;99.90;;;;;;5033414;28;20032;-61
2023/06/10 02:03:36;;;;;;;10.70;6.75;;;15.00;99.90;;;;;;5050334;28;20044;-60
2023/06/10 02:06:02;;;;;;;12.48;6.57;;;14.90;99.90;;;;;;5033443;28;20041;-60
2023/06/10 02:08:27;;;;;;;11.15;7.28;;;14.90;99.90;;;;;;5036065;28;20052;-60
2023/06/10 02:10:53;;;;;;;10.88;6.40;;;14.80;99.90;;;;;;5035927;28;20401;-60
2023/06/10 02:13:19;;;;;;;10.70;6.55;;;14.80;99.90;;;;;;5054601;28;20044;-60
2023/06/10 02:15:44;;;;;;;11.23;6.45;;;14.80;99.90;;;;;;5054582;28;20090;-60
2023/06/10 02:18:11;;;;;;;13.07;7.20;;;14.70;99.90;;;;;;5053645;28;20037;-60
2023/06/10 02:20:38;;;;;;;10.85;6.25;;;14.70;99.90;;;;;;5036731;28;20504;-60
2023/06/10 02:23:03;;;;;;;12.00;6.57;;;14.60;99.90;;;;;;5054476;28;20202;-60
2023/06/10 02:25:29;;;;;;;14.48;7.57;;;14.60;99.90;;;;;;5053714;28;20179;-60
2023/06/10 02:27:55;;;;;;;11.77;7.03;;;14.60;99.90;;;;;;5036810;28;20045;-60
2023/06/10 02:30:21;;;;;;;11.55;6.63;;;14.50;99.90;;;;;;5053577;28;20116;-60
2023/06/10 02:32:47;;;;;;;13.38;6.47;;;14.50;99.90;;;;;;5036159;28;20525;-60
2023/06/10 02:35:14;;;;;;;12.63;7.68;;;14.50;99.90;;;;;;5054423;28;20044;-60
2023/06/10 02:37:40;;;;;;;10.68;6.18;;;14.40;99.90;;;;;;5053476;28;20059;-60
2023/06/10 02:40:08;;;;;;;12.50;7.60;;;14.40;99.90;;;;;;5054477;28;20490;-60
2023/06/10 02:42:34;;;;;;;11.75;7.53;;;14.30;99.90;;;;;;5036483;28;20053;-60
2023/06/10 02:45:00;;;;;;;13.82;7.20;;;14.30;99.90;;;;;;5035249;28;20107;-60
2023/06/10 02:47:26;;;;;;;11.48;7.00;;;14.20;99.90;;;;;;5053978;28;20037;-61
2023/06/10 02:49:52;;;;;;;12.05;7.45;;;14.20;99.90;;;;;;5036128;28;20043;-60
2023/06/10 02:52:17;;;;;;;11.82;6.82;;;14.10;99.90;;;;;;5053070;28;20051;-60
2023/06/10 02:54:43;;;;;;;12.43;6.78;;;14.10;99.90;;;;;;5036171;28;20037;-60
2023/06/10 02:57:10;;;;;;;12.43;7.22;;;14.00;99.90;;;;;;5035821;28;20049;-61
2023/06/10 02:59:36;;;;;;;12.93;7.38;;;13.90;99.90;;;;;;5035724;28;20481;-60
2023/06/10 03:02:01;;;;;;;12.75;7.43;;;13.90;99.90;;;;;;5053666;28;20044;-60
2023/06/10 03:04:28;;;;;;;9.18;7.10;;;13.90;99.90;;;;;;5035752;28;20496;-60
2023/06/10 03:06:54;;;;;;;9.88;6.25;;;13.80;99.90;;;;;;5052851;28;20044;-60
2023/06/10 03:09:20;;;;;;;14.13;7.07;;;13.80;99.90;;;;;;5035642;28;20043;-60
2023/06/10 03:11:46;;;;;;;11.43;6.70;;;13.80;99.90;;;;;;5019206;28;20432;-60
2023/06/10 03:14:12;;;;;;;10.88;7.07;;;13.80;99.90;;;;;;5052689;28;20051;-60
2023/06/10 03:16:42;;;;;;;11.68;6.75;;;13.70;99.90;;;;;;5035482;28;20518;-60
2023/06/10 03:19:08;;;;;;;12.13;6.85;;;13.70;99.90;;;;;;5035736;28;20564;-60
2023/06/10 03:21:35;;;;;;;12.65;6.70;;;13.70;99.90;;;;;;5052101;28;20119;-60
2023/06/10 03:24:01;;;;;;;11.73;6.95;;;13.70;99.90;;;;;;5073151;28;20127;-60
2023/06/10 03:26:27;;;;;;;11.15;5.97;;;13.60;99.90;;;;;;5054587;28;20037;-60
2023/06/10 03:28:53;;;;;;;10.35;6.63;;;13.60;99.90;;;;;;5055308;28;20056;-60
2023/06/10 03:31:19;;;;;;;9.50;6.70;;;13.60;99.90;;;;;;5055230;28;20123;-60
2023/06/10 03:33:44;;;;;;;11.35;6.43;;;13.50;99.90;;;;;;5054290;28;20496;-60
2023/06/10 03:36:10;;;;;;;10.68;6.72;;;13.50;99.90;;;;;;5073148;28;20048;-60
2023/06/10 03:38:36;;;;;;;12.73;7.50;;;13.40;99.90;;;;;;5047960;28;20120;-60
2023/06/10 03:41:02;;;;;;;10.32;6.32;;;13.40;99.90;;;;;;5018051;28;20123;-60
2023/06/10 03:43:28;;;;;;;10.80;6.18;;;13.40;99.90;;;;;;5034775;28;20057;-61
2023/06/10 03:45:53;;;;;;;11.48;6.55;;;13.30;99.90;;;;;;5034906;28;20083;-60
2023/06/10 03:48:19;;;;;;;11.00;6.60;;;13.30;99.90;;;;;;5052177;28;20033;-60
2023/06/10 03:50:47;;;;;;;11.10;6.45;;;13.40;99.90;;;;;;5034915;28;20037;-60
2023/06/10 03:53:13;;;;;;;10.57;6.03;;;13.30;99.90;;;;;;5034763;28;20106;-61
2023/06/10 03:55:39;;;;;;;11.57;6.43;;;13.30;99.90;;;;;;5033967;28;20041;-61
2023/06/10 03:58:05;;;;;;;9.45;6.28;;;13.30;99.90;;;;;;5053012;28;20048;-60
2023/06/10 04:00:30;;;;;;;11.95;6.70;;;13.30;99.90;;;;;;5034763;28;20049;-61
2023/06/10 04:02:57;;;;;;;12.00;6.93;;;13.40;99.90;;;;;;5051931;28;20036;-60
2023/06/10 04:05:23;;;;;;;11.23;6.85;;;13.40;99.90;;;;;;5034448;28;20049;-61
2023/06/10 04:07:49;;;;;;;10.45;6.22;;;13.40;99.90;;;;;;5034661;28;20456;-61
2023/06/10 04:10:15;;;;;;;9.55;6.45;;;13.40;99.90;;;;;;5051754;28;20037;-61
2023/06/10 04:12:41;;;;;;;13.13;6.72;;;13.50;99.90;;;;;;5034442;28;20041;-60
2023/06/10 04:15:07;;;;;;;17.17;6.82;;;13.50;99.90;;;;;;5034757;28;20041;-60
2023/06/10 04:17:34;;;;;;;12.23;6.13;;;13.50;99.90;;;;;;5051812;28;20504;-60
2023/06/10 04:20:00;;;;;;;12.45;6.50;;;13.50;99.90;;;;;;5017980;28;20048;-60
2023/06/10 04:22:26;;;;;;;12.35;6.63;;;13.50;99.90;;;;;;5052172;28;20076;-60
2023/06/10 04:24:52;;;;;;;13.45;7.45;;;13.60;99.90;;;;;;5033592;28;20099;-60
2023/06/10 04:27:18;;;;;;;9.95;6.60;;;13.60;99.90;;;;;;5034181;28;20132;-60
2023/06/10 04:29:44;;;;;;;15.07;6.35;;;13.60;99.90;;;;;;5040390;28;20048;-60
2023/06/10 04:32:09;;;;;;;9.70;6.03;;;13.60;99.90;;;;;;5034223;28;20394;-60
2023/06/10 04:34:36;;;;;;;11.30;6.25;;;13.70;99.90;;;;;;5034541;28;20044;-60
2023/06/10 04:37:02;;;;;;;13.13;6.40;;;13.70;99.90;;;;;;5033502;28;20046;-61
2023/06/10 04:39:28;;;;;;;12.93;6.60;;;13.70;99.90;;;;;;5033980;28;20056;-60
2023/06/10 04:41:53;;;;;;;13.38;7.40;;;13.80;99.90;;;;;;5051625;28;20048;-60
2023/06/10 04:44:19;;;;;;;11.43;6.72;;;13.80;99.90;;;;;;5033336;28;20045;-60
2023/06/10 04:46:45;;;;;;;12.63;7.20;;;13.80;99.90;;;;;;5052109;28;20115;-60
2023/06/10 04:49:13;;;;;;;11.73;6.38;;;13.90;99.90;;;;;;5017485;28;20037;-60
2023/06/10 04:51:39;;;;;;;10.27;5.90;;;14.00;99.90;;;;;;5050857;28;20478;-60
2023/06/10 04:54:05;;;;;;;14.15;7.15;;;14.00;99.90;;;;;;5052155;28;20052;-60
2023/06/10 04:56:31;;;;;;;13.43;6.95;;;14.00;99.90;;;;;;5017678;28;20040;-60
2023/06/10 04:58:57;;;;;;;12.02;7.20;;;14.10;99.90;;;;;;5051124;28;20144;-60
2023/06/10 05:01:23;;;;;;;11.63;6.88;;;14.20;99.90;;;;;;5034129;28;20068;-60
2023/06/10 05:03:49;;;;;;;11.48;6.40;;;14.30;99.90;;;;;;5033888;28;20041;-60
2023/06/10 05:06:15;;;;;;;13.38;7.15;;;14.30;99.90;;;;;;5050926;28;20504;-60
2023/06/10 05:08:40;;;;;;;11.02;6.53;;;14.40;99.90;;;;;;5051594;28;20429;-60
2023/06/10 05:11:06;;;;;;;12.18;6.75;;;14.50;99.90;;;;;;5034178;28;20068;-61
2023/06/10 05:13:32;;;;;;;11.38;7.22;;;14.60;99.90;;;;;;5033148;28;20072;-60
2023/06/10 05:15:58;;;;;;;12.35;7.15;;;14.70;99.90;;;;;;5033751;28;20056;-61
2023/06/10 05:18:24;;;;;;;11.60;7.78;;;14.80;99.90;;;;;;5051524;28;20052;-60
2023/06/10 05:20:50;;;;;;;11.98;7.22;;;14.90;99.90;;;;;;5050707;28;20037;-61
2023/06/10 05:23:15;;;;;;;14.93;7.28;;;15.00;99.90;;;;;;5033704;28;20048;-61
2023/06/10 05:25:42;;;;;;;10.10;6.38;;;15.10;99.90;;;;;;5051366;28;20060;-61
2023/06/10 05:28:09;;;;;;;11.43;5.93;;;15.20;99.90;;;;;;5050891;28;20437;-61
2023/06/10 05:30:36;;;;;;;11.10;6.18;;;15.30;99.90;;;;;;5033583;28;20041;-61
2023/06/10 05:33:02;;;;;;;14.10;7.65;;;15.40;99.90;;;;;;5016453;28;20074;-61
2023/06/10 05:35:28;;;;;;;13.68;6.65;;;15.50;99.90;;;;;;5033615;28;20084;-61
2023/06/10 05:37:54;;;;;;;11.05;6.88;;;15.60;99.90;;;;;;5042215;28;20083;-61
2023/06/10 05:40:19;;;;;;;9.98;5.95;;;15.60;99.90;;;;;;5032661;28;20829;-61
2023/06/10 05:42:45;;;;;;;14.40;6.60;;;15.70;99.90;;;;;;5035465;28;20126;-61
2023/06/10 05:45:11;;;;;;;13.52;7.15;;;15.80;99.90;;;;;;5055294;28;20052;-61
2023/06/10 05:47:36;;;;;;;11.32;6.43;;;15.80;99.90;;;;;;5054106;28;20036;-61
2023/06/10 05:50:06;;;;;;;11.40;6.13;;;15.80;99.90;;;;;;5054254;28;20053;-61
2023/06/10 05:52:35;;;;;;;12.45;6.43;;;15.90;99.90;;;;;;5053869;28;20041;-61
2023/06/10 05:55:02;;;;;;;12.52;7.07;;;16.00;99.90;;;;;;5054248;28;20124;-60
2023/06/10 05:57:28;;;;;;;10.55;6.10;;;16.10;99.90;;;;;;5036925;28;20041;-60
2023/06/10 05:59:54;;;;;;;11.73;7.15;;;16.20;99.90;;;;;;5039644;28;20044;-60
2023/06/10 06:02:19;;;;;;;11.63;6.35;;;16.30;99.90;;;;;;5037836;28;20040;-60
2023/06/10 06:04:45;;;;;;;13.18;7.65;;;16.40;99.90;;;;;;5041975;28;20120;-61
2023/06/10 06:07:11;;;;;;;10.23;5.97;;;16.50;99.90;;;;;;5038368;28;20112;-61
2023/06/10 06:09:36;;;;;;;11.40;6.38;;;16.50;99.90;;;;;;5036298;28;20083;-61
2023/06/10 06:12:02;;;;;;;10.90;6.00;;;16.60;99.90;;;;;;5053855;28;20041;-60
2023/06/10 06:14:30;;;;;;;11.73;6.47;;;16.60;99.90;;;;;;5034026;28;20045;-61
2023/06/10 06:16:56;;;;;;;14.27;7.75;;;16.70;99.90;;;;;;5018569;28;20051;-61
2023/06/10 06:19:22;;;;;;;8.85;6.28;;;16.70;99.90;;;;;;5071881;28;20044;-61
2023/06/10 06:21:47;;;;;;;13.35;6.65;;;16.80;99.90;;;;;;5037262;28;20127;-61
2023/06/10 06:24:15;;;;;;;12.07;6.35;;;16.90;99.90;;;;;;5048811;28;20135;-61
2023/06/10 06:26:40;;;;;;;10.57;6.72;;;17.00;99.90;;;;;;5034826;28;20041;-61
2023/06/10 06:29:06;;;;;;;13.45;6.18;;;17.10;99.90;;;;;;5051967;28;20037;-61
2023/06/10 06:31:32;;;;;;;9.82;5.97;;;17.10;99.90;;;;;;5032837;28;20123;-61
2023/06/10 06:33:58;;;;;;;13.80;6.57;;;17.20;99.90;;;;;;5033780;28;20052;-61
2023/06/10 06:36:23;;;;;;;11.02;6.10;;;17.20;99.90;;;;;;5046151;28;20045;-61
2023/06/10 06:38:49;;;;;;;15.95;6.47;;;17.30;99.90;;;;;;5033852;28;20044;-60
2023/06/10 06:41:15;;;;;;;12.27;6.60;;;17.40;99.90;;;;;;5034958;28;20094;-60
2023/06/10 06:43:42;;;;;;;10.95;6.05;;;17.50;99.90;;;;;;5047841;28;20571;-60
2023/06/10 06:46:07;;;;;;;10.05;6.07;;;17.50;99.90;;;;;;5042515;28;20527;-60
2023/06/10 06:48:33;;;;;;;8.85;5.85;;;17.50;99.90;;;;;;5071093;28;20040;-60
2023/06/10 06:50:59;;;;;;;11.32;6.28;;;17.60;99.90;;;;;;5036247;28;20393;-60
2023/06/10 06:53:25;;;;;;;13.43;6.82;;;17.70;99.90;;;;;;5061776;28;20036;-60
2023/06/10 06:55:50;;;;;;;12.63;6.43;;;17.70;99.90;;;;;;5036121;28;20041;-60
2023/06/10 06:58:16;;;;;;;9.55;6.15;;;17.80;99.90;;;;;;5035468;28;20041;-60
2023/06/10 07:00:42;;;;;;;10.02;6.10;;;17.80;99.90;;;;;;5019391;28;20478;-61
2023/06/10 07:03:07;;;;;;;12.32;6.30;;;17.90;99.90;;;;;;5019458;28;20045;-61
2023/06/10 07:05:33;;;;;;;12.32;6.32;;;18.00;99.90;;;;;;5052896;28;20037;-61
2023/06/10 07:07:59;;;;;;;11.88;6.30;;;18.10;99.90;;;;;;5035804;28;20033;-61
2023/06/10 07:10:25;;;;;;;14.43;6.60;;;18.20;99.90;;;;;;5054075;28;20040;-62
2023/06/10 07:12:52;;;;;;;14.13;6.72;;;18.30;99.90;;;;;;5053078;28;20041;-60
2023/06/10 07:15:18;;;;;;;11.23;6.07;;;18.30;99.90;;;;;;5018847;28;20048;-61
2023/06/10 07:17:44;;;;;;;12.43;5.95;;;18.40;99.90;;;;;;5048737;28;20040;-60
2023/06/10 07:20:10;;;;;;;11.15;5.85;;;18.40;99.90;;;;;;5047028;28;20505;-60
2023/06/10 07:22:36;;;;;;;9.63;6.13;;;18.50;99.90;;;;;;5036269;28;20123;-60
2023/06/10 07:25:02;;;;;;;12.85;5.82;;;18.50;99.90;;;;;;5051683;28;20849;-60
2023/06/10 07:27:27;;;;;;;12.45;6.00;;;18.60;99.90;;;;;;5052279;28;20045;-61
2023/06/10 07:29:53;;;;;;;11.48;6.15;;;18.70;99.90;;;;;;5047030;28;20032;-60
2023/06/10 07:32:23;;;;;;;8.10;5.47;;;18.70;99.90;;;;;;5055277;28;20086;-57
2023/06/10 07:34:50;;;;;;;12.90;7.03;;;18.80;99.90;;;;;;5054431;28;20048;-60
2023/06/10 07:37:16;;;;;;;9.88;5.93;;;18.90;99.90;;;;;;5055035;28;20119;-60
2023/06/10 07:39:43;;;;;;;9.68;5.60;;;19.00;99.90;;;;;;5072509;28;20072;-61
2023/06/10 07:42:09;;;;;;;9.50;5.88;;;19.10;99.90;;;;;;5054860;28;20541;-60
2023/06/10 07:44:35;;;;;;;12.05;6.07;;;19.20;99.90;;;;;;5073059;28;20048;-60
2023/06/10 07:47:01;;;;;;;12.73;6.05;;;19.30;99.90;;;;;;5054447;28;20124;-60
2023/06/10 07:49:26;;;;;;;9.13;5.32;;;19.40;99.90;;;;;;5072993;28;20041;-60
2023/06/10 07:51:55;;;;;;;11.27;5.22;;;19.50;99.90;;;;;;5073027;28;20047;-61
2023/06/10 07:54:21;;;;;;;11.95;6.60;;;19.60;99.90;;;;;;5054088;28;20044;-61
2023/06/10 07:56:47;;;;;;;11.75;6.22;;;19.60;99.90;;;;;;5054677;28;20036;-61
2023/06/10 07:59:14;;;;;;;8.65;5.32;;;19.70;99.90;;;;;;5037947;28;20128;-61
2023/06/10 08:01:39;;;;;;;11.45;5.75;;;19.80;99.90;;;;;;5053944;28;20047;-61
2023/06/10 08:04:06;;;;;;;9.68;5.63;;;19.90;99.90;;;;;;5072312;28;20040;-60
2023/06/10 08:06:31;;;;;;;13.15;6.43;;;20.00;99.90;;;;;;5034474;28;20410;-61
2023/06/10 08:08:57;;;;;;;13.63;6.45;;;20.10;99.90;;;;;;5044306;28;20188;-61
2023/06/10 08:11:23;;;;;;;9.18;5.32;;;20.10;99.90;;;;;;5051961;28;20032;-61
2023/06/10 08:13:48;;;;;;;9.55;5.45;;;20.10;99.90;;;;;;5034295;28;20413;-61
2023/06/10 08:16:14;;;;;;;11.02;5.78;;;20.10;99.90;;;;;;5051471;28;20115;-61
2023/06/10 08:18:40;;;;;;;10.18;5.72;;;20.20;99.90;;;;;;5052203;28;20126;-60
2023/06/10 08:21:06;;;;;;;8.93;5.93;;;20.30;99.90;;;;;;5035005;28;20044;-61
2023/06/10 08:23:31;;;;;;;10.38;5.93;;;20.30;99.90;;;;;;5033766;28;20044;-61
2023/06/10 08:25:57;;;;;;;9.10;6.18;;;20.30;99.90;;;;;;5034585;28;20099;-60
2023/06/10 08:28:23;;;;;;;8.63;5.70;;;20.30;99.90;;;;;;5034623;28;20115;-60
2023/06/10 08:30:49;;;;;;;9.05;5.18;;;20.50;99.90;;;;;;5051216;28;20203;-61
2023/06/10 08:33:15;;;;;;;11.18;6.05;;;20.50;99.90;;;;;;5033754;28;20397;-61
2023/06/10 08:35:40;;;;;;;9.48;5.35;;;20.60;99.90;;;;;;5034265;28;20037;-62
2023/06/10 08:38:06;;;;;;;8.80;5.90;;;20.70;99.90;;;;;;5017462;28;20118;-61
2023/06/10 08:40:33;;;;;;;11.68;5.80;;;20.70;99.90;;;;;;5017668;28;20493;-61
2023/06/10 08:43:09;;;;;;;8.80;5.10;;;20.80;99.90;;;;;;5033103;28;20053;-61
2023/06/10 08:45:36;;;;;;;9.82;4.95;;;20.80;99.90;;;;;;5034298;28;20041;-61
2023/06/10 08:48:09;;;;;;;9.38;5.38;;;20.80;99.90;;;;;;5041563;28;20033;-61
2023/06/10 08:50:36;;;;;;;11.52;5.97;;;20.80;99.90;;;;;;5033671;28;20029;-61
2023/06/10 08:53:05;;;;;;;8.90;5.63;;;20.80;99.90;;;;;;5024557;28;20389;-60
2023/06/10 08:55:35;;;;;;;9.13;5.60;;;20.90;99.90;;;;;;5049680;28;20064;-60
2023/06/10 08:58:01;;;;;;;8.00;5.25;;;21.00;99.90;;;;;;5040275;28;20044;-60
2023/06/10 09:00:28;;;;;;;9.23;5.78;;;21.00;99.90;;;;;;5053305;28;20036;-60
2023/06/10 09:02:55;;;;;;;9.35;5.00;;;21.10;99.90;;;;;;5049379;28;20056;-60
2023/06/10 09:05:21;;;;;;;11.13;5.75;;;21.10;99.90;;;;;;5050816;28;20478;-60
2023/06/10 09:07:48;;;;;;;9.73;4.85;;;21.20;99.90;;;;;;5034070;28;20032;-60
2023/06/10 09:10:14;;;;;;;10.35;4.95;;;21.30;99.90;;;;;;5051715;28;20055;-60
2023/06/10 09:12:39;;;;;;;10.02;5.53;;;21.30;99.90;;;;;;5032595;28;20545;-60
2023/06/10 09:15:07;;;;;;;9.07;5.57;;;21.30;99.90;;;;;;5052206;28;20036;-60
2023/06/10 09:17:33;;;;;;;9.68;4.97;;;21.30;99.90;;;;;;5054885;28;20128;-60
2023/06/10 09:20:02;;;;;;;20.05;6.05;;;21.40;99.90;;;;;;5020500;28;20084;-60
2023/06/10 09:22:28;;;;;;;10.25;5.68;;;21.50;99.90;;;;;;5037582;28;20045;-60
2023/06/10 09:25:10;;;;;;;9.35;5.38;;;21.50;99.90;;;;;;5054981;28;20049;-60
2023/06/10 09:27:50;;;;;;;9.07;5.50;;;21.60;99.90;;;;;;5021659;28;20030;-60
2023/06/10 09:30:34;;;;;;;9.60;4.95;;;21.70;99.90;;;;;;5037574;28;20555;-60
2023/06/10 09:33:03;;;;;;;8.85;5.32;;;21.80;99.90;;;;;;5054857;28;20044;-60
2023/06/10 09:35:30;;;;;;;10.80;5.80;;;21.90;99.90;;;;;;5070756;28;20052;-60
2023/06/10 09:37:57;;;;;;;7.82;5.30;;;21.90;99.90;;;;;;5055162;28;20119;-60
2023/06/10 09:40:24;;;;;;;10.18;5.07;;;22.00;99.90;;;;;;5068355;28;20064;-61
2023/06/10 09:42:55;;;;;;;8.98;5.47;;;22.00;99.90;;;;;;5050556;28;20133;-60
2023/06/10 09:45:22;;;;;;;10.25;5.32;;;22.00;99.90;;;;;;5035206;28;20049;-60
2023/06/10 09:47:52;;;;;;;9.20;5.55;;;22.10;99.90;;;;;;5034797;28;20125;-61
2023/06/10 09:50:17;;;;;;;12.85;5.05;;;22.10;99.90;;;;;;5035210;28;20043;-60
2023/06/10 09:52:46;;;;;;;8.07;4.78;;;22.20;99.90;;;;;;5033581;28;20116;-61
2023/06/10 09:55:12;;;;;;;11.93;4.95;;;22.30;99.60;;;;;;5034474;28;20048;-61
2023/06/10 09:57:39;;;;;;;11.10;5.60;;;22.30;99.60;;;;;;5017443;28;20049;-61
2023/06/10 10:00:09;;;;;;;9.45;5.45;;;22.40;99.90;;;;;;5017680;28;20045;-61
2023/06/10 10:02:50;;;;;;;8.50;4.80;;;22.60;99.40;;;;;;5016892;28;20045;-60
2023/06/10 10:05:17;;;;;;;8.52;4.85;;;22.60;99.10;;;;;;5033784;28;20121;-60
2023/06/10 10:07:43;;;;;;;9.43;5.28;;;22.80;99.60;;;;;;5034186;28;20080;-60
2023/06/10 10:10:46;;;;;;;8.40;5.50;;;22.90;99.90;;;;;;5034301;28;20084;-61
2023/06/10 10:13:12;;;;;;;7.88;5.00;;;23.00;98.60;;;;;;5045844;28;20478;-60
2023/06/10 10:15:41;;;;;;;8.13;4.90;;;23.00;99.40;;;;;;5052751;28;20037;-61
2023/06/10 10:18:10;;;;;;;12.15;5.85;;;23.10;99.40;;;;;;5055119;28;20095;-61
2023/06/10 10:20:45;;;;;;;10.02;5.55;;;23.10;98.70;;;;;;5055092;28;20095;-61
2023/06/10 10:23:15;;;;;;;9.55;4.97;;;23.10;97.70;;;;;;5052742;28;20398;-61
2023/06/10 10:25:42;;;;;;;9.50;4.80;;;23.10;97.00;;;;;;5053166;28;20487;-61
2023/06/10 10:28:12;;;;;;;7.53;4.90;;;23.20;95.60;;;;;;5052591;28;20048;-61
2023/06/10 10:30:50;;;;;;;11.50;4.63;;;23.20;95.60;;;;;;5053928;28;20045;-61
2023/06/10 10:33:22;;;;;;;10.52;5.25;;;23.30;96.90;;;;;;5054503;28;20041;-61
2023/06/10 10:35:49;;;;;;;7.28;4.68;;;23.40;97.60;;;;;;5034835;28;20141;-61
2023/06/10 10:38:15;;;;;;;6.78;3.97;;;23.40;96.20;;;;;;5052901;28;20119;-61
2023/06/10 10:40:42;;;;;;;8.85;5.10;;;23.50;95.30;;;;;;5053177;28;20116;-61
2023/06/10 10:43:08;;;;;;;7.57;3.92;;;23.50;95.40;;;;;;5052471;28;20049;-61
2023/06/10 10:45:34;;;;;;;7.00;4.32;;;23.60;95.10;;;;;;5053171;28;20398;-61
2023/06/10 10:48:08;;;;;;;8.98;5.20;;;23.60;94.40;;;;;;5054131;28;20039;-62
2023/06/10 10:50:34;;;;;;;8.00;4.50;;;23.80;94.80;;;;;;5051799;28;20048;-61
2023/06/10 10:53:02;;;;;;;7.13;4.63;;;23.90;95.30;;;;;;5036211;28;20526;-61
2023/06/10 10:55:28;;;;;;;7.55;4.50;;;24.00;93.90;;;;;;5052635;28;20052;-62
2023/06/10 10:58:06;;;;;;;7.47;3.90;;;23.90;93.30;;;;;;5039769;28;20052;-62
2023/06/10 11:00:44;;;;;;;7.47;3.92;;;23.90;92.90;;;;;;5034116;28;20099;-61
2023/06/10 11:03:16;;;;;;;8.73;3.60;;;24.00;91.60;;;;;;5033158;28;20095;-62
2023/06/10 11:05:49;;;;;;;7.68;3.70;;;24.00;91.70;;;;;;5033240;28;20048;-62
2023/06/10 11:08:35;;;;;;;7.83;3.90;;;24.20;90.70;;;;;;5033720;28;20046;-61
2023/06/10 11:11:18;;;;;;;7.20;3.58;;;24.30;90.10;;;;;;5031526;28;20319;-61
2023/06/10 11:13:59;;;;;;;7.03;3.33;;;24.40;90.00;;;;;;5032317;28;20128;-62
2023/06/10 11:16:27;;;;;;;6.60;3.20;;;24.40;87.20;;;;;;5032692;28;20119;-61
2023/06/10 11:18:56;;;;;;;9.18;3.80;;;24.50;87.10;;;;;;5040266;28;20568;-61
2023/06/10 11:21:25;;;;;;;8.82;3.75;;;24.60;86.60;;;;;;5039284;28;20037;-61
2023/06/10 11:23:51;;;;;;;7.15;3.83;;;24.60;89.80;;;;;;5033483;28;20041;-61
2023/06/10 11:26:18;;;;;;;7.05;3.72;;;24.70;89.80;;;;;;5052671;28;20036;-61
2023/06/10 11:28:47;;;;;;;7.50;3.58;;;24.70;85.80;;;;;;5035505;28;20119;-61
2023/06/10 11:31:22;;;;;;;9.98;3.75;;;24.60;86.30;;;;;;5052127;28;20073;-61
2023/06/10 11:33:55;;;;;;;7.28;3.50;;;24.70;88.10;;;;;;5051049;28;20041;-61
2023/06/10 11:36:22;;;;;;;8.15;5.10;;;24.70;85.10;;;;;;5053025;28;20036;-60
2023/06/10 11:38:48;;;;;;;7.82;4.45;;;24.70;84.60;;;;;;5051955;28;20517;-61
2023/06/10 11:41:15;;;;;;;6.15;3.40;;;24.80;84.60;;;;;;5035656;28;20041;-60
2023/06/10 11:43:44;;;;;;;8.88;3.40;;;24.90;84.90;;;;;;5051642;28;20049;-61
2023/06/10 11:46:14;;;;;;;7.13;3.42;;;24.80;84.60;;;;;;5051122;28;20089;-61
2023/06/10 11:48:52;;;;;;;9.27;4.80;;;24.90;89.20;;;;;;5035268;28;20045;-61
2023/06/10 11:51:18;;;;;;;10.05;4.97;;;25.00;97.00;;;;;;5048038;28;20406;-61
2023/06/10 11:53:48;;;;;;;7.97;5.07;;;24.90;99.90;;;;;;5037820;28;20037;-61
2023/06/10 11:56:20;;;;;;;12.98;5.70;;;25.00;99.90;;;;;;5039748;28;20038;-61
2023/06/10 11:58:51;;;;;;;10.02;6.28;;;24.80;99.90;;;;;;5031541;28;20045;-61
2023/06/10 12:01:24;;;;;;;10.88;6.25;;;24.80;99.90;;;;;;5047712;28;20375;-61
2023/06/10 12:04:06;;;;;;;9.07;4.90;;;24.60;99.90;;;;;;5032949;28;20045;-61
2023/06/10 12:06:39;;;;;;;10.48;5.72;;;24.60;99.90;;;;;;5032698;28;20041;-60
2023/06/10 12:09:06;;;;;;;11.35;5.38;;;24.60;99.90;;;;;;5031326;28;20120;-60
2023/06/10 12:11:33;;;;;;;13.43;5.90;;;24.60;99.90;;;;;;5031481;28;20390;-61
2023/06/10 12:13:59;;;;;;;9.05;5.53;;;24.50;99.90;;;;;;5030376;28;20045;-61
2023/06/10 12:16:25;;;;;;;14.13;6.55;;;24.50;99.90;;;;;;5031264;28;20048;-61
2023/06/10 12:18:50;;;;;;;8.30;5.70;;;24.50;99.90;;;;;;5031145;28;20037;-61
2023/06/10 12:21:22;;;;;;;12.88;6.18;;;24.50;99.90;;;;;;5030330;28;20177;-61
2023/06/10 12:24:03;;;;;;;9.25;5.38;;;24.50;99.90;;;;;;5032405;28;20462;-61
2023/06/10 12:26:44;;;;;;;9.93;5.40;;;24.40;99.90;;;;;;5034832;28;20164;-60
2023/06/10 12:29:29;;;;;;;10.35;5.85;;;24.30;99.90;;;;;;5050079;28;20072;-61
2023/06/10 12:32:04;;;;;;;9.70;5.55;;;24.40;99.90;;;;;;5034222;28;20474;-61
2023/06/10 12:34:38;;;;;;;9.43;5.60;;;24.40;99.90;;;;;;5043407;28;20114;-61
2023/06/10 12:37:06;;;;;;;8.55;5.53;;;24.50;99.90;;;;;;5031978;28;20056;-61
2023/06/10 12:39:35;;;;;;;9.57;5.55;;;24.40;99.90;;;;;;5031474;28;20034;-61
2023/06/10 12:42:01;;;;;;;9.20;5.80;;;24.40;99.90;;;;;;5045818;28;20096;-61
2023/06/10 12:44:34;;;;;;;15.70;6.35;;;24.40;99.90;;;;;;5071876;28;20067;-61